sensor_id;sensor_type;location;lat;lon;timestamp;temperature;humidity
35381;DHT22;21486;51.916;8.378;2024-03-22T00:02:00;9.50;99.90
35381;DHT22;21486;51.916;8.378;2024-03-22T00:04:26;9.50;99.90
35381;DHT22;21486;51.916;8.378;2024-03-22T00:06:51;9.60;99.90
35381;DHT22;21486;51.916;8.378;2024-03-22T00:09:17;9.50;99.90
35381;DHT22;21486;51.916;8.378;2024-03-22T00:11:43;9.50;99.90
35381;DHT22;21486;51.916;8.378;2024-03-22T00:14:09;9.50;99.90
35381;DHT22;21486;51.916;8.378;2024-03-22T00:16:35;9.50;99.90
35381;DHT22;21486;51.916;8.378;2024-03-22T00:19:01;9.50;99.90
35381;DHT22;21486;51.916;8.378;2024-03-22T00:21:27;9.60;99.90
35381;DHT22;21486;51.916;8.378;2024-03-22T00:23:53;9.60;99.90
35381;DHT22;21486;51.916;8.378;2024-03-22T00:26:19;9.50;99.90
35381;DHT22;21486;51.916;8.378;2024-03-22T00:28:44;9.50;99.90
35381;DHT22;21486;51.916;8.378;2024-03-22T00:31:10;9.50;99.90
35381;DHT22;21486;51.916;8.378;2024-03-22T00:33:36;9.60;99.90
35381;DHT22;21486;51.916;8.378;2024-03-22T00:36:01;9.70;99.90
35381;DHT22;21486;51.916;8.378;2024-03-22T00:38:27;9.80;99.90
35381;DHT22;21486;51.916;8.378;2024-03-22T00:40:53;9.70;99.90
35381;DHT22;21486;51.916;8.378;2024-03-22T00:43:19;9.70;99.90
35381;DHT22;21486;51.916;8.378;2024-03-22T00:45:45;9.70;99.90
35381;DHT22;21486;51.916;8.378;2024-03-22T00:48:11;9.70;99.90
35381;DHT22;21486;51.916;8.378;2024-03-22T00:50:36;9.70;99.90
35381;DHT22;21486;51.916;8.378;2024-03-22T00:53:02;9.70;99.90
35381;DHT22;21486;51.916;8.378;2024-03-22T00:55:28;9.80;99.90
35381;DHT22;21486;51.916;8.378;2024-03-22T00:57:54;9.80;99.90
35381;DHT22;21486;51.916;8.378;2024-03-22T01:00:19;9.90;99.90
35381;DHT22;21486;51.916;8.378;2024-03-22T01:02:45;9.90;99.90
35381;DHT22;21486;51.916;8.378;2024-03-22T01:05:11;9.80;99.90
35381;DHT22;21486;51.916;8.378;2024-03-22T01:07:37;9.90;99.90
35381;DHT22;21486;51.916;8.378;2024-03-22T01:10:03;9.70;99.90
35381;DHT22;21486;51.916;8.378;2024-03-22T01:12:29;9.70;99.90
35381;DHT22;21486;51.916;8.378;2024-03-22T01:14:55;9.70;99.90
35381;DHT22;21486;51.916;8.378;2024-03-22T01:17:20;9.70;99.90
35381;DHT22;21486;51.916;8.378;2024-03-22T01:19:46;9.70;99.90
35381;DHT22;21486;51.916;8.378;2024-03-22T01:22:11;9.80;99.90
35381;DHT22;21486;51.916;8.378;2024-03-22T01:24:37;9.80;99.90
35381;DHT22;21486;51.916;8.378;2024-03-22T01:27:03;10.10;99.90
35381;DHT22;21486;51.916;8.378;2024-03-22T01:29:29;10.00;99.90
35381;DHT22;21486;51.916;8.378;2024-03-22T01:31:59;10.00;99.90
35381;DHT22;21486;51.916;8.378;2024-03-22T01:34:25;9.90;99.90
35381;DHT22;21486;51.916;8.378;2024-03-22T01:36:51;9.90;99.90
35381;DHT22;21486;51.916;8.378;2024-03-22T01:39:20;10.00;99.90
35381;DHT22;21486;51.916;8.378;2024-03-22T01:41:47;10.10;99.90
35381;DHT22;21486;51.916;8.378;2024-03-22T01:44:13;10.10;99.90
35381;DHT22;21486;51.916;8.378;2024-03-22T01:46:42;10.00;99.90
35381;DHT22;21486;51.916;8.378;2024-03-22T01:49:10;9.90;99.90
35381;DHT22;21486;51.916;8.378;2024-03-22T01:51:36;10.00;99.90
35381;DHT22;21486;51.916;8.378;2024-03-22T01:54:03;10.00;99.90
35381;DHT22;21486;51.916;8.378;2024-03-22T01:56:30;10.00;99.90
35381;DHT22;21486;51.916;8.378;2024-03-22T01:58:56;10.00;99.90
35381;DHT22;21486;51.916;8.378;2024-03-22T02:01:22;10.10;99.90
35381;DHT22;21486;51.916;8.378;2024-03-22T02:03:48;10.00;99.90
35381;DHT22;21486;51.916;8.378;2024-03-22T02:06:13;10.00;99.90
35381;DHT22;21486;51.916;8.378;2024-03-22T02:08:40;10.10;99.90
35381;DHT22;21486;51.916;8.378;2024-03-22T02:11:07;10.10;99.90
35381;DHT22;21486;51.916;8.378;2024-03-22T02:13:33;10.10;99.90
35381;DHT22;21486;51.916;8.378;2024-03-22T02:15:58;10.10;99.90
35381;DHT22;21486;51.916;8.378;2024-03-22T02:18:24;10.00;99.90
35381;DHT22;21486;51.916;8.378;2024-03-22T02:20:49;10.10;99.90
35381;DHT22;21486;51.916;8.378;2024-03-22T02:23:15;10.10;99.90
35381;DHT22;21486;51.916;8.378;2024-03-22T02:25:40;10.00;99.90
35381;DHT22;21486;51.916;8.378;2024-03-22T02:28:06;10.00;99.90
35381;DHT22;21486;51.916;8.378;2024-03-22T02:30:31;10.00;99.90
35381;DHT22;21486;51.916;8.378;2024-03-22T02:32:57;10.00;99.90
35381;DHT22;21486;51.916;8.378;2024-03-22T02:35:22;10.00;99.90
35381;DHT22;21486;51.916;8.378;2024-03-22T02:37:48;9.90;99.90
35381;DHT22;21486;51.916;8.378;2024-03-22T02:40:13;9.90;99.90
35381;DHT22;21486;51.916;8.378;2024-03-22T02:42:39;9.90;99.90
35381;DHT22;21486;51.916;8.378;2024-03-22T02:45:05;10.00;99.90
35381;DHT22;21486;51.916;8.378;2024-03-22T02:47:30;10.10;99.90
35381;DHT22;21486;51.916;8.378;2024-03-22T02:49:56;10.00;99.90
35381;DHT22;21486;51.916;8.378;2024-03-22T02:52:21;10.00;99.90
35381;DHT22;21486;51.916;8.378;2024-03-22T02:54:47;9.90;99.90
35381;DHT22;21486;51.916;8.378;2024-03-22T02:57:12;9.80;99.90
35381;DHT22;21486;51.916;8.378;2024-03-22T02:59:38;9.90;99.90
35381;DHT22;21486;51.916;8.378;2024-03-22T03:02:03;9.90;99.90
35381;DHT22;21486;51.916;8.378;2024-03-22T03:04:29;9.80;99.90
35381;DHT22;21486;51.916;8.378;2024-03-22T03:06:54;9.80;99.90
35381;DHT22;21486;51.916;8.378;2024-03-22T03:09:21;9.80;99.90
35381;DHT22;21486;51.916;8.378;2024-03-22T03:11:46;10.00;99.90
35381;DHT22;21486;51.916;8.378;2024-03-22T03:14:12;9.80;99.90
35381;DHT22;21486;51.916;8.378;2024-03-22T03:16:37;9.70;99.90
35381;DHT22;21486;51.916;8.378;2024-03-22T03:19:03;9.70;99.90
35381;DHT22;21486;51.916;8.378;2024-03-22T03:21:29;9.70;99.90
35381;DHT22;21486;51.916;8.378;2024-03-22T03:23:54;9.70;99.90
35381;DHT22;21486;51.916;8.378;2024-03-22T03:26:20;9.70;99.90
35381;DHT22;21486;51.916;8.378;2024-03-22T03:28:45;9.70;99.90
35381;DHT22;21486;51.916;8.378;2024-03-22T03:31:11;9.80;99.90
35381;DHT22;21486;51.916;8.378;2024-03-22T03:33:36;9.60;99.90
35381;DHT22;21486;51.916;8.378;2024-03-22T03:36:02;9.70;99.90
35381;DHT22;21486;51.916;8.378;2024-03-22T03:38:27;9.60;99.90
35381;DHT22;21486;51.916;8.378;2024-03-22T03:40:53;9.60;99.90
35381;DHT22;21486;51.916;8.378;2024-03-22T03:43:18;9.60;99.90
35381;DHT22;21486;51.916;8.378;2024-03-22T03:45:44;9.60;99.90
35381;DHT22;21486;51.916;8.378;2024-03-22T03:48:10;9.60;99.90
35381;DHT22;21486;51.916;8.378;2024-03-22T03:50:35;9.50;99.90
35381;DHT22;21486;51.916;8.378;2024-03-22T03:53:01;9.60;99.90
35381;DHT22;21486;51.916;8.378;2024-03-22T03:55:26;9.60;99.90
35381;DHT22;21486;51.916;8.378;2024-03-22T03:57:52;9.60;99.90
35381;DHT22;21486;51.916;8.378;2024-03-22T04:00:19;9.60;99.90
35381;DHT22;21486;51.916;8.378;2024-03-22T04:02:45;9.60;99.90
35381;DHT22;21486;51.916;8.378;2024-03-22T04:05:10;9.60;99.90
35381;DHT22;21486;51.916;8.378;2024-03-22T04:07:36;9.60;99.90
35381;DHT22;21486;51.916;8.378;2024-03-22T04:10:02;9.60;99.90
35381;DHT22;21486;51.916;8.378;2024-03-22T04:12:28;9.50;99.90
35381;DHT22;21486;51.916;8.378;2024-03-22T04:14:54;9.60;99.90
35381;DHT22;21486;51.916;8.378;2024-03-22T04:17:19;9.60;99.90
35381;DHT22;21486;51.916;8.378;2024-03-22T04:19:45;9.50;99.90
35381;DHT22;21486;51.916;8.378;2024-03-22T04:22:10;9.60;99.90
35381;DHT22;21486;51.916;8.378;2024-03-22T04:24:36;9.60;99.90
35381;DHT22;21486;51.916;8.378;2024-03-22T04:27:01;9.60;99.90
35381;DHT22;21486;51.916;8.378;2024-03-22T04:29:27;9.60;99.90
35381;DHT22;21486;51.916;8.378;2024-03-22T04:31:52;9.60;99.90
35381;DHT22;21486;51.916;8.378;2024-03-22T04:34:18;9.60;99.90
35381;DHT22;21486;51.916;8.378;2024-03-22T04:36:44;9.60;99.90
35381;DHT22;21486;51.916;8.378;2024-03-22T04:39:09;9.60;99.90
35381;DHT22;21486;51.916;8.378;2024-03-22T04:41:37;9.50;99.90
35381;DHT22;21486;51.916;8.378;2024-03-22T04:44:02;9.50;99.90
35381;DHT22;21486;51.916;8.378;2024-03-22T04:46:28;9.60;99.90
35381;DHT22;21486;51.916;8.378;2024-03-22T04:48:54;9.60;99.90
35381;DHT22;21486;51.916;8.378;2024-03-22T04:51:19;9.60;99.90
35381;DHT22;21486;51.916;8.378;2024-03-22T04:53:45;9.70;99.90
35381;DHT22;21486;51.916;8.378;2024-03-22T04:56:10;9.80;99.90
35381;DHT22;21486;51.916;8.378;2024-03-22T04:58:36;9.60;99.90
35381;DHT22;21486;51.916;8.378;2024-03-22T05:01:01;9.60;99.90
35381;DHT22;21486;51.916;8.378;2024-03-22T05:03:27;9.70;99.90
35381;DHT22;21486;51.916;8.378;2024-03-22T05:05:52;9.70;99.90
35381;DHT22;21486;51.916;8.378;2024-03-22T05:08:18;9.70;99.90
35381;DHT22;21486;51.916;8.378;2024-03-22T05:10:43;9.80;99.90
35381;DHT22;21486;51.916;8.378;2024-03-22T05:13:09;9.90;99.90
35381;DHT22;21486;51.916;8.378;2024-03-22T05:15:34;9.80;99.90
35381;DHT22;21486;51.916;8.378;2024-03-22T05:18:00;9.80;99.90
35381;DHT22;21486;51.916;8.378;2024-03-22T05:20:26;9.90;99.90
35381;DHT22;21486;51.916;8.378;2024-03-22T05:22:52;9.90;99.90
35381;DHT22;21486;51.916;8.378;2024-03-22T05:25:17;9.90;99.90
35381;DHT22;21486;51.916;8.378;2024-03-22T05:27:44;10.00;99.90
35381;DHT22;21486;51.916;8.378;2024-03-22T05:30:10;10.00;99.90
35381;DHT22;21486;51.916;8.378;2024-03-22T05:32:36;10.00;99.90
35381;DHT22;21486;51.916;8.378;2024-03-22T05:35:02;10.10;99.90
35381;DHT22;21486;51.916;8.378;2024-03-22T05:37:28;10.10;99.90
35381;DHT22;21486;51.916;8.378;2024-03-22T05:39:54;10.20;99.90
35381;DHT22;21486;51.916;8.378;2024-03-22T05:42:19;10.20;99.90
35381;DHT22;21486;51.916;8.378;2024-03-22T05:44:45;10.50;99.90
35381;DHT22;21486;51.916;8.378;2024-03-22T05:47:11;10.40;99.90
35381;DHT22;21486;51.916;8.378;2024-03-22T05:49:36;10.50;99.90
35381;DHT22;21486;51.916;8.378;2024-03-22T05:52:02;10.50;99.90
35381;DHT22;21486;51.916;8.378;2024-03-22T05:54:27;10.50;99.90
35381;DHT22;21486;51.916;8.378;2024-03-22T05:56:53;10.60;99.90
35381;DHT22;21486;51.916;8.378;2024-03-22T05:59:18;10.70;99.90
35381;DHT22;21486;51.916;8.378;2024-03-22T06:01:44;10.70;99.90
35381;DHT22;21486;51.916;8.378;2024-03-22T06:04:09;10.80;99.90
35381;DHT22;21486;51.916;8.378;2024-03-22T06:06:35;10.80;99.90
35381;DHT22;21486;51.916;8.378;2024-03-22T06:09:02;10.80;99.90
35381;DHT22;21486;51.916;8.378;2024-03-22T06:11:34;10.80;99.90
35381;DHT22;21486;51.916;8.378;2024-03-22T06:14:00;10.90;99.90
35381;DHT22;21486;51.916;8.378;2024-03-22T06:16:26;11.00;99.90
35381;DHT22;21486;51.916;8.378;2024-03-22T06:18:51;11.10;99.90
35381;DHT22;21486;51.916;8.378;2024-03-22T06:21:17;11.20;99.90
35381;DHT22;21486;51.916;8.378;2024-03-22T06:23:49;11.30;99.90
35381;DHT22;21486;51.916;8.378;2024-03-22T06:26:14;11.30;99.90
35381;DHT22;21486;51.916;8.378;2024-03-22T06:28:40;11.50;99.90
35381;DHT22;21486;51.916;8.378;2024-03-22T06:31:06;11.70;99.90
35381;DHT22;21486;51.916;8.378;2024-03-22T06:33:31;11.60;99.90
35381;DHT22;21486;51.916;8.378;2024-03-22T06:35:57;11.50;99.90
35381;DHT22;21486;51.916;8.378;2024-03-22T06:38:22;11.60;99.90
35381;DHT22;21486;51.916;8.378;2024-03-22T06:40:48;11.60;99.90
35381;DHT22;21486;51.916;8.378;2024-03-22T06:43:13;11.60;99.90
35381;DHT22;21486;51.916;8.378;2024-03-22T06:45:39;11.60;99.90
35381;DHT22;21486;51.916;8.378;2024-03-22T06:48:04;11.70;99.90
35381;DHT22;21486;51.916;8.378;2024-03-22T06:50:30;11.80;99.90
35381;DHT22;21486;51.916;8.378;2024-03-22T06:52:56;12.00;99.90
35381;DHT22;21486;51.916;8.378;2024-03-22T06:55:21;11.90;99.90
35381;DHT22;21486;51.916;8.378;2024-03-22T06:57:48;11.80;99.90
35381;DHT22;21486;51.916;8.378;2024-03-22T07:00:15;12.00;99.90
35381;DHT22;21486;51.916;8.378;2024-03-22T07:02:41;11.80;99.90
35381;DHT22;21486;51.916;8.378;2024-03-22T07:05:07;11.70;99.90
35381;DHT22;21486;51.916;8.378;2024-03-22T07:07:34;11.80;99.90
35381;DHT22;21486;51.916;8.378;2024-03-22T07:10:00;11.90;99.90
35381;DHT22;21486;51.916;8.378;2024-03-22T07:12:25;12.00;99.90
35381;DHT22;21486;51.916;8.378;2024-03-22T07:14:51;12.00;99.90
35381;DHT22;21486;51.916;8.378;2024-03-22T07:17:16;12.00;99.90
35381;DHT22;21486;51.916;8.378;2024-03-22T07:19:42;12.00;99.90
35381;DHT22;21486;51.916;8.378;2024-03-22T07:22:08;12.00;99.90
35381;DHT22;21486;51.916;8.378;2024-03-22T07:24:33;12.10;99.90
35381;DHT22;21486;51.916;8.378;2024-03-22T07:26:59;12.10;99.90
35381;DHT22;21486;51.916;8.378;2024-03-22T07:29:24;12.20;99.90
35381;DHT22;21486;51.916;8.378;2024-03-22T07:31:50;12.20;99.90
35381;DHT22;21486;51.916;8.378;2024-03-22T07:34:15;12.20;99.90
35381;DHT22;21486;51.916;8.378;2024-03-22T07:36:41;12.20;99.90
35381;DHT22;21486;51.916;8.378;2024-03-22T07:39:06;12.20;99.90
35381;DHT22;21486;51.916;8.378;2024-03-22T07:41:33;12.20;99.90
35381;DHT22;21486;51.916;8.378;2024-03-22T07:44:02;12.30;99.90
35381;DHT22;21486;51.916;8.378;2024-03-22T07:46:28;12.20;99.90
35381;DHT22;21486;51.916;8.378;2024-03-22T07:48:54;12.20;99.90
35381;DHT22;21486;51.916;8.378;2024-03-22T07:51:20;12.20;99.90
35381;DHT22;21486;51.916;8.378;2024-03-22T07:53:45;12.20;99.90
35381;DHT22;21486;51.916;8.378;2024-03-22T07:56:11;12.20;99.90
35381;DHT22;21486;51.916;8.378;2024-03-22T07:58:38;12.30;99.90
35381;DHT22;21486;51.916;8.378;2024-03-22T08:01:04;12.40;99.90
35381;DHT22;21486;51.916;8.378;2024-03-22T08:03:30;12.40;99.90
35381;DHT22;21486;51.916;8.378;2024-03-22T08:05:55;12.50;99.90
35381;DHT22;21486;51.916;8.378;2024-03-22T08:08:21;12.60;99.90
35381;DHT22;21486;51.916;8.378;2024-03-22T08:10:46;12.70;99.90
35381;DHT22;21486;51.916;8.378;2024-03-22T08:13:12;12.90;99.90
35381;DHT22;21486;51.916;8.378;2024-03-22T08:15:37;12.90;99.90
35381;DHT22;21486;51.916;8.378;2024-03-22T08:18:03;12.90;99.90
35381;DHT22;21486;51.916;8.378;2024-03-22T08:20:28;12.90;99.90
35381;DHT22;21486;51.916;8.378;2024-03-22T08:22:55;12.90;99.90
35381;DHT22;21486;51.916;8.378;2024-03-22T08:25:21;13.10;99.90
35381;DHT22;21486;51.916;8.378;2024-03-22T08:27:48;13.20;99.90
35381;DHT22;21486;51.916;8.378;2024-03-22T08:30:14;13.10;99.90
35381;DHT22;21486;51.916;8.378;2024-03-22T08:32:40;13.00;99.90
35381;DHT22;21486;51.916;8.378;2024-03-22T08:35:06;13.10;99.90
35381;DHT22;21486;51.916;8.378;2024-03-22T08:37:33;13.20;99.90
35381;DHT22;21486;51.916;8.378;2024-03-22T08:39:58;13.40;99.90
35381;DHT22;21486;51.916;8.378;2024-03-22T08:42:24;13.20;99.90
35381;DHT22;21486;51.916;8.378;2024-03-22T08:44:49;13.20;99.90
35381;DHT22;21486;51.916;8.378;2024-03-22T08:47:15;13.30;99.90
35381;DHT22;21486;51.916;8.378;2024-03-22T08:49:40;13.30;99.90
35381;DHT22;21486;51.916;8.378;2024-03-22T08:52:08;13.40;99.90
35381;DHT22;21486;51.916;8.378;2024-03-22T08:54:34;13.50;99.90
35381;DHT22;21486;51.916;8.378;2024-03-22T08:56:59;13.40;99.90
35381;DHT22;21486;51.916;8.378;2024-03-22T08:59:25;13.70;99.90
35381;DHT22;21486;51.916;8.378;2024-03-22T09:01:51;13.50;99.90
35381;DHT22;21486;51.916;8.378;2024-03-22T09:04:17;13.70;99.90
35381;DHT22;21486;51.916;8.378;2024-03-22T09:06:42;13.40;99.90
35381;DHT22;21486;51.916;8.378;2024-03-22T09:09:08;13.40;99.90
35381;DHT22;21486;51.916;8.378;2024-03-22T09:11:34;13.50;99.90
35381;DHT22;21486;51.916;8.378;2024-03-22T09:13:59;13.40;99.90
35381;DHT22;21486;51.916;8.378;2024-03-22T09:16:25;13.60;99.90
35381;DHT22;21486;51.916;8.378;2024-03-22T09:18:50;13.60;99.90
35381;DHT22;21486;51.916;8.378;2024-03-22T09:21:16;13.70;99.90
35381;DHT22;21486;51.916;8.378;2024-03-22T09:23:42;13.70;99.90
35381;DHT22;21486;51.916;8.378;2024-03-22T09:26:07;13.70;99.90
35381;DHT22;21486;51.916;8.378;2024-03-22T09:28:33;13.70;99.90
35381;DHT22;21486;51.916;8.378;2024-03-22T09:31:03;13.70;99.90
35381;DHT22;21486;51.916;8.378;2024-03-22T09:33:29;13.70;99.90
35381;DHT22;21486;51.916;8.378;2024-03-22T09:35:54;13.80;99.90
35381;DHT22;21486;51.916;8.378;2024-03-22T09:38:20;13.60;99.90
35381;DHT22;21486;51.916;8.378;2024-03-22T09:40:46;13.60;99.90
35381;DHT22;21486;51.916;8.378;2024-03-22T09:43:12;13.70;99.90
35381;DHT22;21486;51.916;8.378;2024-03-22T09:45:40;13.60;99.90
35381;DHT22;21486;51.916;8.378;2024-03-22T09:48:06;13.50;99.90
35381;DHT22;21486;51.916;8.378;2024-03-22T09:50:32;13.60;99.90
35381;DHT22;21486;51.916;8.378;2024-03-22T09:52:58;13.80;99.90
35381;DHT22;21486;51.916;8.378;2024-03-22T09:55:24;13.80;99.90
35381;DHT22;21486;51.916;8.378;2024-03-22T09:57:50;13.90;99.90
35381;DHT22;21486;51.916;8.378;2024-03-22T10:00:19;13.90;99.90
35381;DHT22;21486;51.916;8.378;2024-03-22T10:02:49;13.80;99.90
35381;DHT22;21486;51.916;8.378;2024-03-22T10:05:15;13.80;99.90
35381;DHT22;21486;51.916;8.378;2024-03-22T10:07:43;13.70;99.90
35381;DHT22;21486;51.916;8.378;2024-03-22T10:10:09;13.80;99.90
35381;DHT22;21486;51.916;8.378;2024-03-22T10:12:35;13.80;99.90
35381;DHT22;21486;51.916;8.378;2024-03-22T10:15:01;13.90;99.90
35381;DHT22;21486;51.916;8.378;2024-03-22T10:17:31;14.00;99.90
35381;DHT22;21486;51.916;8.378;2024-03-22T10:19:56;14.40;99.90
35381;DHT22;21486;51.916;8.378;2024-03-22T10:22:22;14.50;99.90
35381;DHT22;21486;51.916;8.378;2024-03-22T10:24:50;14.50;99.90
35381;DHT22;21486;51.916;8.378;2024-03-22T10:27:16;14.60;99.90
35381;DHT22;21486;51.916;8.378;2024-03-22T10:29:42;14.40;99.90
35381;DHT22;21486;51.916;8.378;2024-03-22T10:32:08;14.20;99.90
35381;DHT22;21486;51.916;8.378;2024-03-22T10:34:34;14.10;99.90
35381;DHT22;21486;51.916;8.378;2024-03-22T10:37:00;14.00;99.90
35381;DHT22;21486;51.916;8.378;2024-03-22T10:39:27;13.90;99.90
35381;DHT22;21486;51.916;8.378;2024-03-22T10:41:53;13.90;99.90
35381;DHT22;21486;51.916;8.378;2024-03-22T10:44:19;14.00;99.90
35381;DHT22;21486;51.916;8.378;2024-03-22T10:46:47;14.20;99.90
35381;DHT22;21486;51.916;8.378;2024-03-22T10:49:17;14.10;99.90
35381;DHT22;21486;51.916;8.378;2024-03-22T10:51:51;14.20;99.90
35381;DHT22;21486;51.916;8.378;2024-03-22T10:54:21;14.20;99.90
35381;DHT22;21486;51.916;8.378;2024-03-22T10:56:47;14.00;99.90
35381;DHT22;21486;51.916;8.378;2024-03-22T10:59:18;13.90;99.90
35381;DHT22;21486;51.916;8.378;2024-03-22T11:01:46;14.00;99.90
35381;DHT22;21486;51.916;8.378;2024-03-22T11:04:11;13.90;99.90
35381;DHT22;21486;51.916;8.378;2024-03-22T11:06:37;14.00;99.90
35381;DHT22;21486;51.916;8.378;2024-03-22T11:09:03;14.20;99.90
35381;DHT22;21486;51.916;8.378;2024-03-22T11:11:31;14.10;99.90
35381;DHT22;21486;51.916;8.378;2024-03-22T11:14:03;14.10;99.90
35381;DHT22;21486;51.916;8.378;2024-03-22T11:16:28;14.00;99.90
35381;DHT22;21486;51.916;8.378;2024-03-22T11:18:55;14.10;99.90
35381;DHT22;21486;51.916;8.378;2024-03-22T11:21:20;14.00;99.90
35381;DHT22;21486;51.916;8.378;2024-03-22T11:23:46;14.20;99.90
35381;DHT22;21486;51.916;8.378;2024-03-22T11:26:12;14.00;99.90
35381;DHT22;21486;51.916;8.378;2024-03-22T11:28:38;14.00;99.90
35381;DHT22;21486;51.916;8.378;2024-03-22T11:31:04;14.20;99.90
35381;DHT22;21486;51.916;8.378;2024-03-22T11:33:33;14.10;99.90
35381;DHT22;21486;51.916;8.378;2024-03-22T11:35:59;14.40;99.90
35381;DHT22;21486;51.916;8.378;2024-03-22T11:38:26;14.00;99.90
35381;DHT22;21486;51.916;8.378;2024-03-22T11:40:53;14.10;99.90
35381;DHT22;21486;51.916;8.378;2024-03-22T11:43:20;13.90;99.90
35381;DHT22;21486;51.916;8.378;2024-03-22T11:45:46;13.90;99.90
35381;DHT22;21486;51.916;8.378;2024-03-22T11:48:11;13.70;99.90
35381;DHT22;21486;51.916;8.378;2024-03-22T11:50:37;13.70;99.90
35381;DHT22;21486;51.916;8.378;2024-03-22T11:53:05;13.50;99.90
35381;DHT22;21486;51.916;8.378;2024-03-22T11:55:31;13.40;99.90
35381;DHT22;21486;51.916;8.378;2024-03-22T11:57:59;13.50;99.90
35381;DHT22;21486;51.916;8.378;2024-03-22T12:00:25;13.50;99.90
35381;DHT22;21486;51.916;8.378;2024-03-22T12:02:53;13.30;99.90
35381;DHT22;21486;51.916;8.378;2024-03-22T12:05:19;13.40;99.90
35381;DHT22;21486;51.916;8.378;2024-03-22T12:07:45;13.30;99.90
35381;DHT22;21486;51.916;8.378;2024-03-22T12:10:11;13.30;99.90
35381;DHT22;21486;51.916;8.378;2024-03-22T12:12:37;13.20;99.90
35381;DHT22;21486;51.916;8.378;2024-03-22T12:15:03;13.20;99.90
35381;DHT22;21486;51.916;8.378;2024-03-22T12:17:29;13.20;99.90
35381;DHT22;21486;51.916;8.378;2024-03-22T12:19:55;13.10;99.90
35381;DHT22;21486;51.916;8.378;2024-03-22T12:22:22;13.00;99.90
35381;DHT22;21486;51.916;8.378;2024-03-22T12:24:47;13.00;99.90
35381;DHT22;21486;51.916;8.378;2024-03-22T12:27:13;13.00;99.90
35381;DHT22;21486;51.916;8.378;2024-03-22T12:29:38;13.00;99.90
35381;DHT22;21486;51.916;8.378;2024-03-22T12:32:04;12.90;99.90
35381;DHT22;21486;51.916;8.378;2024-03-22T12:34:31;12.90;99.90
35381;DHT22;21486;51.916;8.378;2024-03-22T12:36:58;12.90;99.90
35381;DHT22;21486;51.916;8.378;2024-03-22T12:39:24;12.90;99.90
35381;DHT22;21486;51.916;8.378;2024-03-22T12:41:49;12.80;99.90
35381;DHT22;21486;51.916;8.378;2024-03-22T12:44:15;12.80;99.90
35381;DHT22;21486;51.916;8.378;2024-03-22T12:46:40;12.80;99.90
35381;DHT22;21486;51.916;8.378;2024-03-22T12:49:10;12.70;99.90
35381;DHT22;21486;51.916;8.378;2024-03-22T12:51:36;12.60;99.90
35381;DHT22;21486;51.916;8.378;2024-03-22T12:54:02;12.60;99.90
35381;DHT22;21486;51.916;8.378;2024-03-22T12:56:29;12.60;99.90
35381;DHT22;21486;51.916;8.378;2024-03-22T12:58:54;12.60;99.90
35381;DHT22;21486;51.916;8.378;2024-03-22T13:01:20;12.60;99.90
35381;DHT22;21486;51.916;8.378;2024-03-22T13:03:46;12.70;99.90
35381;DHT22;21486;51.916;8.378;2024-03-22T13:06:12;12.60;99.90
35381;DHT22;21486;51.916;8.378;2024-03-22T13:08:38;12.50;99.90
35381;DHT22;21486;51.916;8.378;2024-03-22T13:11:04;12.50;99.90
35381;DHT22;21486;51.916;8.378;2024-03-22T13:13:29;12.60;99.90
35381;DHT22;21486;51.916;8.378;2024-03-22T13:15:58;12.60;99.90
35381;DHT22;21486;51.916;8.378;2024-03-22T13:18:23;12.50;99.90
35381;DHT22;21486;51.916;8.378;2024-03-22T13:20:49;12.50;99.90
35381;DHT22;21486;51.916;8.378;2024-03-22T13:23:15;12.50;99.90
35381;DHT22;21486;51.916;8.378;2024-03-22T13:25:40;12.30;99.90
35381;DHT22;21486;51.916;8.378;2024-03-22T13:28:06;12.40;99.90
35381;DHT22;21486;51.916;8.378;2024-03-22T13:30:32;12.20;99.90
35381;DHT22;21486;51.916;8.378;2024-03-22T13:32:57;12.20;99.90
35381;DHT22;21486;51.916;8.378;2024-03-22T13:35:24;12.10;99.90
35381;DHT22;21486;51.916;8.378;2024-03-22T13:37:50;12.20;99.90
35381;DHT22;21486;51.916;8.378;2024-03-22T13:40:16;12.30;99.90
35381;DHT22;21486;51.916;8.378;2024-03-22T13:42:41;12.20;99.90
35381;DHT22;21486;51.916;8.378;2024-03-22T13:45:07;12.20;99.90
35381;DHT22;21486;51.916;8.378;2024-03-22T13:47:33;12.20;99.90
35381;DHT22;21486;51.916;8.378;2024-03-22T13:49:59;12.00;99.90
35381;DHT22;21486;51.916;8.378;2024-03-22T13:52:24;11.90;99.90
35381;DHT22;21486;51.916;8.378;2024-03-22T13:54:51;12.00;99.90
35381;DHT22;21486;51.916;8.378;2024-03-22T13:57:16;11.80;99.90
35381;DHT22;21486;51.916;8.378;2024-03-22T13:59:42;11.60;99.90
35381;DHT22;21486;51.916;8.378;2024-03-22T14:02:07;11.50;99.90
35381;DHT22;21486;51.916;8.378;2024-03-22T14:04:34;11.40;99.90
35381;DHT22;21486;51.916;8.378;2024-03-22T14:06:59;11.30;99.90
35381;DHT22;21486;51.916;8.378;2024-03-22T14:09:32;11.40;99.90
35381;DHT22;21486;51.916;8.378;2024-03-22T14:11:58;11.30;99.90
35381;DHT22;21486;51.916;8.378;2024-03-22T14:14:25;11.50;99.90
35381;DHT22;21486;51.916;8.378;2024-03-22T14:16:51;11.20;99.90
35381;DHT22;21486;51.916;8.378;2024-03-22T14:19:16;11.20;99.90
35381;DHT22;21486;51.916;8.378;2024-03-22T14:21:43;11.20;99.90
35381;DHT22;21486;51.916;8.378;2024-03-22T14:24:09;11.30;99.90
35381;DHT22;21486;51.916;8.378;2024-03-22T14:26:34;11.30;99.90
35381;DHT22;21486;51.916;8.378;2024-03-22T14:29:00;11.30;99.90
35381;DHT22;21486;51.916;8.378;2024-03-22T14:31:25;11.20;99.90
35381;DHT22;21486;51.916;8.378;2024-03-22T14:33:51;11.10;99.90
35381;DHT22;21486;51.916;8.378;2024-03-22T14:36:16;11.10;99.90
35381;DHT22;21486;51.916;8.378;2024-03-22T14:38:42;10.90;99.90
35381;DHT22;21486;51.916;8.378;2024-03-22T14:41:07;10.90;99.90
35381;DHT22;21486;51.916;8.378;2024-03-22T14:43:33;10.90;99.90
35381;DHT22;21486;51.916;8.378;2024-03-22T14:46:00;10.80;99.90
35381;DHT22;21486;51.916;8.378;2024-03-22T14:48:26;10.90;99.90
35381;DHT22;21486;51.916;8.378;2024-03-22T14:50:52;10.90;99.90
35381;DHT22;21486;51.916;8.378;2024-03-22T14:53:19;10.90;99.90
35381;DHT22;21486;51.916;8.378;2024-03-22T14:55:55;10.80;99.90
35381;DHT22;21486;51.916;8.378;2024-03-22T14:58:27;10.70;99.90
35381;DHT22;21486;51.916;8.378;2024-03-22T15:00:53;10.70;99.90
35381;DHT22;21486;51.916;8.378;2024-03-22T15:03:19;10.70;99.90
35381;DHT22;21486;51.916;8.378;2024-03-22T15:05:45;10.70;99.90
35381;DHT22;21486;51.916;8.378;2024-03-22T15:08:10;10.70;99.90
35381;DHT22;21486;51.916;8.378;2024-03-22T15:10:37;10.70;99.90
35381;DHT22;21486;51.916;8.378;2024-03-22T15:13:02;10.70;99.90
35381;DHT22;21486;51.916;8.378;2024-03-22T15:15:28;10.70;99.90
35381;DHT22;21486;51.916;8.378;2024-03-22T15:17:54;10.60;99.90
35381;DHT22;21486;51.916;8.378;2024-03-22T15:20:20;10.60;99.90
35381;DHT22;21486;51.916;8.378;2024-03-22T15:22:45;10.40;99.90
35381;DHT22;21486;51.916;8.378;2024-03-22T15:25:11;10.60;99.90
35381;DHT22;21486;51.916;8.378;2024-03-22T15:27:37;10.50;99.90